sensor_id;sensor_type;location;lat;lon;timestamp;P1;durP1;ratioP1;P2;durP2;ratioP2
28335;SDS011;15592;53.656;7.276;2022-08-02T00:01:41;5.60;;;3.75;;
28335;SDS011;15592;53.656;7.276;2022-08-02T00:04:07;6.15;;;3.60;;
28335;SDS011;15592;53.656;7.276;2022-08-02T00:06:34;7.65;;;3.60;;
28335;SDS011;15592;53.656;7.276;2022-08-02T00:09:00;5.70;;;3.60;;
28335;SDS011;15592;53.656;7.276;2022-08-02T00:11:26;9.57;;;4.70;;
28335;SDS011;15592;53.656;7.276;2022-08-02T00:13:52;4.43;;;3.35;;
28335;SDS011;15592;53.656;7.276;2022-08-02T00:16:17;5.20;;;3.33;;
28335;SDS011;15592;53.656;7.276;2022-08-02T00:18:43;6.45;;;3.63;;
28335;SDS011;15592;53.656;7.276;2022-08-02T00:21:09;6.60;;;4.10;;
28335;SDS011;15592;53.656;7.276;2022-08-02T00:23:35;5.82;;;4.05;;
28335;SDS011;15592;53.656;7.276;2022-08-02T00:26:00;4.38;;;3.47;;
28335;SDS011;15592;53.656;7.276;2022-08-02T00:28:26;6.55;;;3.88;;
28335;SDS011;15592;53.656;7.276;2022-08-02T00:30:52;4.75;;;3.45;;
28335;SDS011;15592;53.656;7.276;2022-08-02T00:33:17;6.10;;;3.42;;
28335;SDS011;15592;53.656;7.276;2022-08-02T00:35:43;5.50;;;3.65;;
28335;SDS011;15592;53.656;7.276;2022-08-02T00:38:11;4.00;;;3.60;;
28335;SDS011;15592;53.656;7.276;2022-08-02T00:40:37;6.35;;;3.60;;
28335;SDS011;15592;53.656;7.276;2022-08-02T00:43:04;6.35;;;4.10;;
28335;SDS011;15592;53.656;7.276;2022-08-02T00:45:32;6.30;;;4.30;;
28335;SDS011;15592;53.656;7.276;2022-08-02T00:47:59;5.18;;;3.75;;
28335;SDS011;15592;53.656;7.276;2022-08-02T00:50:25;6.57;;;4.15;;
28335;SDS011;15592;53.656;7.276;2022-08-02T00:52:51;8.70;;;4.40;;
28335;SDS011;15592;53.656;7.276;2022-08-02T00:55:17;7.93;;;4.43;;
28335;SDS011;15592;53.656;7.276;2022-08-02T00:57:42;7.50;;;4.10;;
28335;SDS011;15592;53.656;7.276;2022-08-02T01:00:08;4.28;;;3.60;;
28335;SDS011;15592;53.656;7.276;2022-08-02T01:02:34;6.88;;;3.92;;
28335;SDS011;15592;53.656;7.276;2022-08-02T01:04:59;9.15;;;4.13;;
28335;SDS011;15592;53.656;7.276;2022-08-02T01:07:25;5.82;;;3.83;;
28335;SDS011;15592;53.656;7.276;2022-08-02T01:09:51;6.95;;;4.57;;
28335;SDS011;15592;53.656;7.276;2022-08-02T01:12:17;7.13;;;4.45;;
28335;SDS011;15592;53.656;7.276;2022-08-02T01:14:44;8.00;;;4.78;;
28335;SDS011;15592;53.656;7.276;2022-08-02T01:28:38;8.93;;;5.68;;
28335;SDS011;15592;53.656;7.276;2022-08-02T01:36:53;5.70;;;4.30;;
28335;SDS011;15592;53.656;7.276;2022-08-02T01:39:24;6.90;;;4.65;;
28335;SDS011;15592;53.656;7.276;2022-08-02T01:41:52;9.05;;;4.65;;
28335;SDS011;15592;53.656;7.276;2022-08-02T01:44:20;12.65;;;4.30;;
28335;SDS011;15592;53.656;7.276;2022-08-02T01:46:48;13.38;;;5.20;;
28335;SDS011;15592;53.656;7.276;2022-08-02T01:49:15;6.35;;;4.30;;
28335;SDS011;15592;53.656;7.276;2022-08-02T01:51:44;8.30;;;4.50;;
28335;SDS011;15592;53.656;7.276;2022-08-02T01:54:31;9.77;;;4.85;;
28335;SDS011;15592;53.656;7.276;2022-08-02T01:56:58;6.97;;;4.22;;
28335;SDS011;15592;53.656;7.276;2022-08-02T01:59:28;10.07;;;4.32;;
28335;SDS011;15592;53.656;7.276;2022-08-02T02:01:56;9.52;;;4.15;;
28335;SDS011;15592;53.656;7.276;2022-08-02T02:04:24;6.75;;;4.15;;
28335;SDS011;15592;53.656;7.276;2022-08-02T02:06:52;9.95;;;4.57;;
28335;SDS011;15592;53.656;7.276;2022-08-02T02:09:19;9.70;;;4.63;;
28335;SDS011;15592;53.656;7.276;2022-08-02T02:11:46;8.52;;;4.10;;
28335;SDS011;15592;53.656;7.276;2022-08-02T02:14:13;11.25;;;4.82;;
28335;SDS011;15592;53.656;7.276;2022-08-02T02:16:41;10.20;;;4.70;;
28335;SDS011;15592;53.656;7.276;2022-08-02T02:19:10;11.07;;;4.65;;
28335;SDS011;15592;53.656;7.276;2022-08-02T02:21:40;8.68;;;4.55;;
28335;SDS011;15592;53.656;7.276;2022-08-02T02:24:06;6.45;;;4.40;;
28335;SDS011;15592;53.656;7.276;2022-08-02T02:26:31;11.40;;;4.85;;
28335;SDS011;15592;53.656;7.276;2022-08-02T02:29:00;8.93;;;4.70;;
28335;SDS011;15592;53.656;7.276;2022-08-02T02:31:28;7.30;;;5.15;;
28335;SDS011;15592;53.656;7.276;2022-08-02T02:34:07;10.90;;;5.13;;
28335;SDS011;15592;53.656;7.276;2022-08-02T02:36:39;14.23;;;5.68;;
28335;SDS011;15592;53.656;7.276;2022-08-02T02:39:09;10.90;;;4.93;;
28335;SDS011;15592;53.656;7.276;2022-08-02T02:41:37;10.32;;;5.30;;
28335;SDS011;15592;53.656;7.276;2022-08-02T02:44:04;7.30;;;4.82;;
28335;SDS011;15592;53.656;7.276;2022-08-02T02:46:33;9.48;;;5.00;;
28335;SDS011;15592;53.656;7.276;2022-08-02T02:48:59;7.47;;;4.65;;
28335;SDS011;15592;53.656;7.276;2022-08-02T02:51:26;12.63;;;5.47;;
28335;SDS011;15592;53.656;7.276;2022-08-02T02:53:53;9.23;;;4.95;;
28335;SDS011;15592;53.656;7.276;2022-08-02T02:56:20;13.15;;;5.45;;
28335;SDS011;15592;53.656;7.276;2022-08-02T02:58:46;10.05;;;4.93;;
28335;SDS011;15592;53.656;7.276;2022-08-02T03:01:12;11.48;;;5.30;;
28335;SDS011;15592;53.656;7.276;2022-08-02T03:03:59;10.63;;;4.80;;
28335;SDS011;15592;53.656;7.276;2022-08-02T03:06:27;7.57;;;4.65;;
28335;SDS011;15592;53.656;7.276;2022-08-02T03:08:53;10.25;;;5.30;;
28335;SDS011;15592;53.656;7.276;2022-08-02T03:11:19;11.52;;;4.97;;
28335;SDS011;15592;53.656;7.276;2022-08-02T03:13:45;11.23;;;4.85;;
28335;SDS011;15592;53.656;7.276;2022-08-02T03:16:11;11.98;;;5.05;;
28335;SDS011;15592;53.656;7.276;2022-08-02T03:18:37;10.80;;;4.97;;
28335;SDS011;15592;53.656;7.276;2022-08-02T03:21:07;10.15;;;5.05;;
28335;SDS011;15592;53.656;7.276;2022-08-02T03:23:35;9.65;;;5.20;;
28335;SDS011;15592;53.656;7.276;2022-08-02T03:26:03;12.35;;;5.75;;
28335;SDS011;15592;53.656;7.276;2022-08-02T03:28:28;13.98;;;5.30;;
28335;SDS011;15592;53.656;7.276;2022-08-02T03:30:54;11.00;;;5.28;;
28335;SDS011;15592;53.656;7.276;2022-08-02T03:33:20;12.23;;;5.68;;
28335;SDS011;15592;53.656;7.276;2022-08-02T03:35:47;12.60;;;5.30;;
28335;SDS011;15592;53.656;7.276;2022-08-02T03:38:15;11.40;;;5.13;;
28335;SDS011;15592;53.656;7.276;2022-08-02T03:40:42;9.32;;;5.38;;
28335;SDS011;15592;53.656;7.276;2022-08-02T03:43:09;9.50;;;5.25;;
28335;SDS011;15592;53.656;7.276;2022-08-02T03:45:37;7.80;;;4.97;;
28335;SDS011;15592;53.656;7.276;2022-08-02T03:48:06;9.57;;;5.43;;
28335;SDS011;15592;53.656;7.276;2022-08-02T03:50:32;10.38;;;5.05;;
28335;SDS011;15592;53.656;7.276;2022-08-02T03:52:59;9.52;;;5.22;;
28335;SDS011;15592;53.656;7.276;2022-08-02T03:55:25;10.05;;;6.05;;
28335;SDS011;15592;53.656;7.276;2022-08-02T03:57:51;9.77;;;5.57;;
28335;SDS011;15592;53.656;7.276;2022-08-02T04:00:18;8.40;;;5.30;;
28335;SDS011;15592;53.656;7.276;2022-08-02T04:02:45;8.52;;;5.20;;
28335;SDS011;15592;53.656;7.276;2022-08-02T04:05:11;9.05;;;5.07;;
28335;SDS011;15592;53.656;7.276;2022-08-02T04:07:36;10.95;;;5.60;;
28335;SDS011;15592;53.656;7.276;2022-08-02T04:10:03;7.40;;;4.60;;
28335;SDS011;15592;53.656;7.276;2022-08-02T04:12:29;9.35;;;4.88;;
28335;SDS011;15592;53.656;7.276;2022-08-02T04:14:54;10.80;;;5.28;;
28335;SDS011;15592;53.656;7.276;2022-08-02T04:17:21;7.75;;;4.75;;
28335;SDS011;15592;53.656;7.276;2022-08-02T04:19:49;5.88;;;4.60;;
28335;SDS011;15592;53.656;7.276;2022-08-02T04:22:23;9.48;;;5.43;;
28335;SDS011;15592;53.656;7.276;2022-08-02T04:24:55;10.45;;;5.28;;
28335;SDS011;15592;53.656;7.276;2022-08-02T04:27:24;7.80;;;4.78;;
28335;SDS011;15592;53.656;7.276;2022-08-02T04:29:50;7.97;;;4.95;;
28335;SDS011;15592;53.656;7.276;2022-08-02T04:32:17;9.75;;;5.82;;
28335;SDS011;15592;53.656;7.276;2022-08-02T04:34:44;8.82;;;5.03;;
28335;SDS011;15592;53.656;7.276;2022-08-02T04:37:10;7.38;;;4.88;;
28335;SDS011;15592;53.656;7.276;2022-08-02T04:39:37;8.90;;;5.20;;
28335;SDS011;15592;53.656;7.276;2022-08-02T04:42:04;8.77;;;5.40;;
28335;SDS011;15592;53.656;7.276;2022-08-02T04:44:31;9.52;;;5.25;;
28335;SDS011;15592;53.656;7.276;2022-08-02T04:46:56;8.10;;;5.22;;
28335;SDS011;15592;53.656;7.276;2022-08-02T04:49:24;8.73;;;5.53;;
28335;SDS011;15592;53.656;7.276;2022-08-02T04:51:49;11.55;;;4.95;;
28335;SDS011;15592;53.656;7.276;2022-08-02T04:54:15;11.98;;;5.65;;
28335;SDS011;15592;53.656;7.276;2022-08-02T04:56:41;10.02;;;5.35;;
28335;SDS011;15592;53.656;7.276;2022-08-02T04:59:07;10.27;;;5.00;;
28335;SDS011;15592;53.656;7.276;2022-08-02T05:01:33;16.77;;;5.78;;
28335;SDS011;15592;53.656;7.276;2022-08-02T05:03:59;15.82;;;5.93;;
28335;SDS011;15592;53.656;7.276;2022-08-02T05:06:25;10.55;;;5.28;;
28335;SDS011;15592;53.656;7.276;2022-08-02T05:08:50;10.35;;;5.13;;
28335;SDS011;15592;53.656;7.276;2022-08-02T05:11:17;12.63;;;5.60;;
28335;SDS011;15592;53.656;7.276;2022-08-02T05:13:42;12.15;;;5.28;;
28335;SDS011;15592;53.656;7.276;2022-08-02T05:16:08;13.43;;;5.55;;
28335;SDS011;15592;53.656;7.276;2022-08-02T05:18:34;10.55;;;5.30;;
28335;SDS011;15592;53.656;7.276;2022-08-02T05:20:59;9.65;;;5.13;;
28335;SDS011;15592;53.656;7.276;2022-08-02T05:23:25;13.07;;;5.80;;
28335;SDS011;15592;53.656;7.276;2022-08-02T05:25:50;15.15;;;5.53;;
28335;SDS011;15592;53.656;7.276;2022-08-02T05:28:16;10.45;;;4.95;;
28335;SDS011;15592;53.656;7.276;2022-08-02T05:30:42;9.27;;;5.90;;
28335;SDS011;15592;53.656;7.276;2022-08-02T05:33:07;12.88;;;5.50;;
28335;SDS011;15592;53.656;7.276;2022-08-02T05:35:33;12.18;;;5.88;;
28335;SDS011;15592;53.656;7.276;2022-08-02T05:37:59;12.73;;;5.90;;
28335;SDS011;15592;53.656;7.276;2022-08-02T05:40:25;9.88;;;5.68;;
28335;SDS011;15592;53.656;7.276;2022-08-02T05:42:50;14.43;;;6.55;;
28335;SDS011;15592;53.656;7.276;2022-08-02T05:45:25;9.18;;;5.85;;
28335;SDS011;15592;53.656;7.276;2022-08-02T05:47:50;12.95;;;5.97;;
28335;SDS011;15592;53.656;7.276;2022-08-02T05:50:16;11.57;;;6.65;;
28335;SDS011;15592;53.656;7.276;2022-08-02T05:52:44;13.15;;;6.13;;
28335;SDS011;15592;53.656;7.276;2022-08-02T05:55:16;13.68;;;6.20;;
28335;SDS011;15592;53.656;7.276;2022-08-02T05:57:51;10.30;;;5.93;;
28335;SDS011;15592;53.656;7.276;2022-08-02T06:03:38;11.55;;;6.57;;
28335;SDS011;15592;53.656;7.276;2022-08-02T06:06:12;20.25;;;6.50;;
28335;SDS011;15592;53.656;7.276;2022-08-02T06:08:44;13.95;;;6.72;;
28335;SDS011;15592;53.656;7.276;2022-08-02T06:11:16;11.50;;;5.93;;
28335;SDS011;15592;53.656;7.276;2022-08-02T06:13:45;11.85;;;6.60;;
28335;SDS011;15592;53.656;7.276;2022-08-02T06:16:11;14.93;;;6.45;;
28335;SDS011;15592;53.656;7.276;2022-08-02T06:18:36;14.23;;;6.45;;
28335;SDS011;15592;53.656;7.276;2022-08-02T06:21:05;13.88;;;6.85;;
28335;SDS011;15592;53.656;7.276;2022-08-02T06:23:33;15.48;;;6.95;;
28335;SDS011;15592;53.656;7.276;2022-08-02T06:26:00;12.77;;;7.03;;
28335;SDS011;15592;53.656;7.276;2022-08-02T06:28:28;15.68;;;6.75;;
28335;SDS011;15592;53.656;7.276;2022-08-02T06:30:55;14.27;;;6.20;;
28335;SDS011;15592;53.656;7.276;2022-08-02T06:33:22;13.82;;;6.82;;
28335;SDS011;15592;53.656;7.276;2022-08-02T06:38:27;13.00;;;6.15;;
28335;SDS011;15592;53.656;7.276;2022-08-02T06:41:04;9.45;;;6.05;;
28335;SDS011;15592;53.656;7.276;2022-08-02T06:43:45;14.02;;;6.38;;
28335;SDS011;15592;53.656;7.276;2022-08-02T06:46:17;18.33;;;6.60;;
28335;SDS011;15592;53.656;7.276;2022-08-02T06:48:43;14.93;;;5.75;;
28335;SDS011;15592;53.656;7.276;2022-08-02T06:51:09;9.52;;;6.22;;
28335;SDS011;15592;53.656;7.276;2022-08-02T06:53:35;10.93;;;5.90;;
28335;SDS011;15592;53.656;7.276;2022-08-02T06:56:00;10.60;;;5.63;;
28335;SDS011;15592;53.656;7.276;2022-08-02T06:58:26;12.98;;;6.65;;
28335;SDS011;15592;53.656;7.276;2022-08-02T07:00:51;14.57;;;6.13;;
28335;SDS011;15592;53.656;7.276;2022-08-02T07:03:17;12.43;;;6.00;;
28335;SDS011;15592;53.656;7.276;2022-08-02T07:05:43;15.25;;;6.20;;
28335;SDS011;15592;53.656;7.276;2022-08-02T07:08:12;18.00;;;6.70;;
28335;SDS011;15592;53.656;7.276;2022-08-02T07:10:41;12.73;;;5.50;;
28335;SDS011;15592;53.656;7.276;2022-08-02T07:13:07;14.73;;;5.55;;
28335;SDS011;15592;53.656;7.276;2022-08-02T07:15:33;13.13;;;5.97;;
28335;SDS011;15592;53.656;7.276;2022-08-02T07:17:59;13.27;;;5.53;;
28335;SDS011;15592;53.656;7.276;2022-08-02T07:20:24;11.27;;;5.57;;
28335;SDS011;15592;53.656;7.276;2022-08-02T07:22:50;10.73;;;5.25;;
28335;SDS011;15592;53.656;7.276;2022-08-02T07:25:16;8.63;;;4.93;;
28335;SDS011;15592;53.656;7.276;2022-08-02T07:27:41;11.25;;;5.25;;
28335;SDS011;15592;53.656;7.276;2022-08-02T07:30:07;11.52;;;5.03;;
28335;SDS011;15592;53.656;7.276;2022-08-02T07:32:35;8.40;;;4.72;;
28335;SDS011;15592;53.656;7.276;2022-08-02T07:35:00;10.95;;;5.00;;
28335;SDS011;15592;53.656;7.276;2022-08-02T07:37:28;11.38;;;4.22;;
28335;SDS011;15592;53.656;7.276;2022-08-02T07:39:55;7.65;;;4.60;;
28335;SDS011;15592;53.656;7.276;2022-08-02T07:42:21;6.57;;;4.55;;
28335;SDS011;15592;53.656;7.276;2022-08-02T07:44:46;9.18;;;4.32;;
28335;SDS011;15592;53.656;7.276;2022-08-02T07:47:12;11.20;;;4.43;;
28335;SDS011;15592;53.656;7.276;2022-08-02T07:49:37;7.80;;;4.13;;
28335;SDS011;15592;53.656;7.276;2022-08-02T07:52:03;9.38;;;3.92;;
28335;SDS011;15592;53.656;7.276;2022-08-02T07:54:29;8.65;;;4.10;;
28335;SDS011;15592;53.656;7.276;2022-08-02T07:56:55;8.73;;;3.50;;
28335;SDS011;15592;53.656;7.276;2022-08-02T07:59:21;11.50;;;4.45;;
28335;SDS011;15592;53.656;7.276;2022-08-02T08:01:47;13.75;;;4.30;;
28335;SDS011;15592;53.656;7.276;2022-08-02T08:04:14;8.55;;;3.58;;
28335;SDS011;15592;53.656;7.276;2022-08-02T08:06:40;8.13;;;3.72;;
28335;SDS011;15592;53.656;7.276;2022-08-02T08:09:05;7.78;;;3.63;;
28335;SDS011;15592;53.656;7.276;2022-08-02T08:11:31;12.02;;;3.72;;
28335;SDS011;15592;53.656;7.276;2022-08-02T08:13:57;9.30;;;4.03;;
28335;SDS011;15592;53.656;7.276;2022-08-02T08:16:22;9.98;;;3.90;;
28335;SDS011;15592;53.656;7.276;2022-08-02T08:18:50;7.85;;;4.05;;
28335;SDS011;15592;53.656;7.276;2022-08-02T08:21:16;11.63;;;3.97;;
28335;SDS011;15592;53.656;7.276;2022-08-02T08:23:41;10.52;;;3.60;;
28335;SDS011;15592;53.656;7.276;2022-08-02T08:26:07;9.73;;;4.40;;
28335;SDS011;15592;53.656;7.276;2022-08-02T08:28:32;9.93;;;4.00;;
28335;SDS011;15592;53.656;7.276;2022-08-02T08:30:59;6.00;;;3.00;;
28335;SDS011;15592;53.656;7.276;2022-08-02T08:33:25;8.50;;;3.08;;
28335;SDS011;15592;53.656;7.276;2022-08-02T08:35:51;9.23;;;3.88;;
28335;SDS011;15592;53.656;7.276;2022-08-02T08:38:17;8.27;;;3.58;;
28335;SDS011;15592;53.656;7.276;2022-08-02T08:40:43;6.88;;;3.72;;
28335;SDS011;15592;53.656;7.276;2022-08-02T08:43:10;6.35;;;2.92;;
28335;SDS011;15592;53.656;7.276;2022-08-02T08:45:38;6.72;;;2.92;;
28335;SDS011;15592;53.656;7.276;2022-08-02T08:48:06;9.05;;;3.20;;
28335;SDS011;15592;53.656;7.276;2022-08-02T08:50:41;7.32;;;2.75;;
28335;SDS011;15592;53.656;7.276;2022-08-02T08:53:13;7.65;;;2.80;;
28335;SDS011;15592;53.656;7.276;2022-08-02T08:55:40;7.38;;;2.40;;
28335;SDS011;15592;53.656;7.276;2022-08-02T08:58:07;8.68;;;2.88;;
28335;SDS011;15592;53.656;7.276;2022-08-02T09:00:33;4.70;;;2.45;;
28335;SDS011;15592;53.656;7.276;2022-08-02T09:03:01;14.63;;;2.67;;
28335;SDS011;15592;53.656;7.276;2022-08-02T09:05:28;7.45;;;2.67;;
28335;SDS011;15592;53.656;7.276;2022-08-02T09:07:53;5.82;;;2.75;;
28335;SDS011;15592;53.656;7.276;2022-08-02T09:10:36;4.88;;;2.50;;
28335;SDS011;15592;53.656;7.276;2022-08-02T09:15:45;9.63;;;2.78;;
28335;SDS011;15592;53.656;7.276;2022-08-02T09:18:27;4.50;;;2.38;;
28335;SDS011;15592;53.656;7.276;2022-08-02T09:20:58;7.28;;;2.33;;
28335;SDS011;15592;53.656;7.276;2022-08-02T09:23:25;5.72;;;2.45;;
28335;SDS011;15592;53.656;7.276;2022-08-02T09:26:04;5.38;;;2.70;;
28335;SDS011;15592;53.656;7.276;2022-08-02T09:28:32;6.43;;;2.65;;
28335;SDS011;15592;53.656;7.276;2022-08-02T09:31:03;5.40;;;2.30;;
28335;SDS011;15592;53.656;7.276;2022-08-02T09:33:34;5.15;;;2.47;;
28335;SDS011;15592;53.656;7.276;2022-08-02T09:38:31;4.68;;;2.10;;
28335;SDS011;15592;53.656;7.276;2022-08-02T09:40:57;4.72;;;2.25;;
28335;SDS011;15592;53.656;7.276;2022-08-02T09:43:36;8.25;;;2.60;;
28335;SDS011;15592;53.656;7.276;2022-08-02T09:48:55;6.90;;;2.53;;
28335;SDS011;15592;53.656;7.276;2022-08-02T09:51:26;6.80;;;2.17;;
28335;SDS011;15592;53.656;7.276;2022-08-02T09:54:00;8.38;;;2.10;;
28335;SDS011;15592;53.656;7.276;2022-08-02T09:56:38;7.80;;;2.30;;
28335;SDS011;15592;53.656;7.276;2022-08-02T09:59:15;5.20;;;2.20;;
28335;SDS011;15592;53.656;7.276;2022-08-02T10:01:42;5.93;;;2.13;;
28335;SDS011;15592;53.656;7.276;2022-08-02T10:04:10;6.65;;;2.13;;
28335;SDS011;15592;53.656;7.276;2022-08-02T10:06:37;4.35;;;1.95;;
28335;SDS011;15592;53.656;7.276;2022-08-02T10:09:05;4.72;;;2.33;;
28335;SDS011;15592;53.656;7.276;2022-08-02T10:11:31;4.15;;;2.28;;
28335;SDS011;15592;53.656;7.276;2022-08-02T10:13:58;2.88;;;1.98;;
28335;SDS011;15592;53.656;7.276;2022-08-02T10:16:26;7.70;;;2.00;;
28335;SDS011;15592;53.656;7.276;2022-08-02T10:18:53;5.18;;;2.10;;
28335;SDS011;15592;53.656;7.276;2022-08-02T10:21:28;3.30;;;2.00;;
28335;SDS011;15592;53.656;7.276;2022-08-02T10:24:17;9.98;;;1.92;;
28335;SDS011;15592;53.656;7.276;2022-08-02T10:26:46;6.18;;;2.47;;
28335;SDS011;15592;53.656;7.276;2022-08-02T10:29:16;6.65;;;1.80;;
28335;SDS011;15592;53.656;7.276;2022-08-02T10:34:20;7.32;;;2.00;;
28335;SDS011;15592;53.656;7.276;2022-08-02T10:36:51;6.00;;;2.00;;
28335;SDS011;15592;53.656;7.276;2022-08-02T10:39:18;6.07;;;2.10;;
28335;SDS011;15592;53.656;7.276;2022-08-02T10:41:44;3.58;;;2.03;;
28335;SDS011;15592;53.656;7.276;2022-08-02T10:44:31;4.20;;;2.13;;
28335;SDS011;15592;53.656;7.276;2022-08-02T10:52:21;6.75;;;2.00;;
28335;SDS011;15592;53.656;7.276;2022-08-02T10:54:55;10.50;;;2.60;;
28335;SDS011;15592;53.656;7.276;2022-08-02T10:57:26;6.85;;;1.90;;
28335;SDS011;15592;53.656;7.276;2022-08-02T10:59:54;6.25;;;2.05;;
28335;SDS011;15592;53.656;7.276;2022-08-02T11:02:34;6.65;;;2.15;;
28335;SDS011;15592;53.656;7.276;2022-08-02T11:05:00;5.05;;;2.42;;
28335;SDS011;15592;53.656;7.276;2022-08-02T11:07:34;3.00;;;2.25;;
28335;SDS011;15592;53.656;7.276;2022-08-02T11:15:51;4.28;;;2.10;;
28335;SDS011;15592;53.656;7.276;2022-08-02T11:18:19;4.72;;;2.30;;
28335;SDS011;15592;53.656;7.276;2022-08-02T11:20:46;3.47;;;2.25;;
28335;SDS011;15592;53.656;7.276;2022-08-02T11:26:00;3.63;;;2.10;;
28335;SDS011;15592;53.656;7.276;2022-08-02T11:28:29;6.55;;;2.28;;
28335;SDS011;15592;53.656;7.276;2022-08-02T11:30:56;3.88;;;2.00;;
28335;SDS011;15592;53.656;7.276;2022-08-02T11:33:31;3.90;;;2.33;;
28335;SDS011;15592;53.656;7.276;2022-08-02T11:36:02;3.72;;;2.13;;
28335;SDS011;15592;53.656;7.276;2022-08-02T11:38:30;4.80;;;2.30;;
28335;SDS011;15592;53.656;7.276;2022-08-02T11:40:56;2.10;;;1.88;;
28335;SDS011;15592;53.656;7.276;2022-08-02T11:43:22;8.82;;;2.45;;
28335;SDS011;15592;53.656;7.276;2022-08-02T11:45:51;2.75;;;2.00;;
28335;SDS011;15592;53.656;7.276;2022-08-02T11:48:30;5.38;;;2.08;;
28335;SDS011;15592;53.656;7.276;2022-08-02T11:51:08;4.65;;;2.28;;
28335;SDS011;15592;53.656;7.276;2022-08-02T11:53:52;6.97;;;2.30;;
28335;SDS011;15592;53.656;7.276;2022-08-02T11:56:29;5.00;;;2.08;;
28335;SDS011;15592;53.656;7.276;2022-08-02T11:59:08;4.20;;;2.08;;
28335;SDS011;15592;53.656;7.276;2022-08-02T12:01:36;4.18;;;2.30;;
28335;SDS011;15592;53.656;7.276;2022-08-02T12:04:04;6.68;;;2.60;;
28335;SDS011;15592;53.656;7.276;2022-08-02T12:06:30;5.50;;;2.70;;
28335;SDS011;15592;53.656;7.276;2022-08-02T12:08:58;4.15;;;2.65;;
28335;SDS011;15592;53.656;7.276;2022-08-02T12:11:28;3.72;;;2.38;;
28335;SDS011;15592;53.656;7.276;2022-08-02T12:13:54;5.57;;;2.88;;
28335;SDS011;15592;53.656;7.276;2022-08-02T12:16:21;4.72;;;2.45;;
28335;SDS011;15592;53.656;7.276;2022-08-02T12:19:06;5.80;;;2.63;;
28335;SDS011;15592;53.656;7.276;2022-08-02T12:21:44;4.40;;;2.75;;
28335;SDS011;15592;53.656;7.276;2022-08-02T12:24:10;4.82;;;2.70;;
28335;SDS011;15592;53.656;7.276;2022-08-02T12:26:40;4.93;;;2.63;;
28335;SDS011;15592;53.656;7.276;2022-08-02T12:29:10;6.82;;;2.70;;
28335;SDS011;15592;53.656;7.276;2022-08-02T12:34:14;6.47;;;3.13;;
28335;SDS011;15592;53.656;7.276;2022-08-02T12:36:43;3.08;;;2.50;;
28335;SDS011;15592;53.656;7.276;2022-08-02T12:39:34;4.72;;;3.17;;
28335;SDS011;15592;53.656;7.276;2022-08-02T12:42:14;4.80;;;3.20;;
28335;SDS011;15592;53.656;7.276;2022-08-02T12:44:58;6.53;;;3.28;;
28335;SDS011;15592;53.656;7.276;2022-08-02T12:47:24;5.10;;;3.03;;
28335;SDS011;15592;53.656;7.276;2022-08-02T12:55:47;10.15;;;3.70;;
28335;SDS011;15592;53.656;7.276;2022-08-02T12:58:13;6.53;;;2.90;;
28335;SDS011;15592;53.656;7.276;2022-08-02T13:00:39;4.55;;;3.17;;
28335;SDS011;15592;53.656;7.276;2022-08-02T13:03:05;5.18;;;3.55;;
28335;SDS011;15592;53.656;7.276;2022-08-02T13:05:33;4.03;;;2.92;;
28335;SDS011;15592;53.656;7.276;2022-08-02T13:08:00;4.10;;;2.95;;
28335;SDS011;15592;53.656;7.276;2022-08-02T13:10:27;6.10;;;3.25;;
28335;SDS011;15592;53.656;7.276;2022-08-02T13:12:53;7.07;;;3.28;;
28335;SDS011;15592;53.656;7.276;2022-08-02T13:15:20;5.10;;;2.95;;
28335;SDS011;15592;53.656;7.276;2022-08-02T13:17:46;4.22;;;3.22;;
28335;SDS011;15592;53.656;7.276;2022-08-02T13:20:13;4.82;;;3.47;;
28335;SDS011;15592;53.656;7.276;2022-08-02T13:22:39;4.82;;;2.95;;
28335;SDS011;15592;53.656;7.276;2022-08-02T13:25:06;3.63;;;2.90;;
28335;SDS011;15592;53.656;7.276;2022-08-02T13:27:32;4.82;;;2.83;;
28335;SDS011;15592;53.656;7.276;2022-08-02T13:29:58;4.90;;;3.05;;
28335;SDS011;15592;53.656;7.276;2022-08-02T13:32:25;4.80;;;3.33;;
28335;SDS011;15592;53.656;7.276;2022-08-02T13:34:52;3.60;;;2.80;;
28335;SDS011;15592;53.656;7.276;2022-08-02T13:37:19;4.60;;;2.83;;
28335;SDS011;15592;53.656;7.276;2022-08-02T13:39:45;5.70;;;3.60;;
28335;SDS011;15592;53.656;7.276;2022-08-02T13:42:11;4.43;;;3.00;;
28335;SDS011;15592;53.656;7.276;2022-08-02T13:44:36;5.22;;;3.35;;
28335;SDS011;15592;53.656;7.276;2022-08-02T13:47:02;4.82;;;3.28;;
28335;SDS011;15592;53.656;7.276;2022-08-02T13:49:28;3.33;;;3.00;;
28335;SDS011;15592;53.656;7.276;2022-08-02T13:51:54;4.40;;;2.83;;
28335;SDS011;15592;53.656;7.276;2022-08-02T13:54:20;4.47;;;3.00;;
28335;SDS011;15592;53.656;7.276;2022-08-02T13:56:45;3.00;;;2.70;;
28335;SDS011;15592;53.656;7.276;2022-08-02T13:59:11;3.15;;;2.47;;
28335;SDS011;15592;53.656;7.276;2022-08-02T14:02:02;3.05;;;2.75;;
28335;SDS011;15592;53.656;7.276;2022-08-02T14:04:28;3.22;;;2.72;;
28335;SDS011;15592;53.656;7.276;2022-08-02T14:06:54;3.00;;;2.70;;
28335;SDS011;15592;53.656;7.276;2022-08-02T14:09:21;4.13;;;3.00;;
28335;SDS011;15592;53.656;7.276;2022-08-02T14:11:46;3.35;;;3.05;;
28335;SDS011;15592;53.656;7.276;2022-08-02T14:14:12;3.70;;;3.17;;
28335;SDS011;15592;53.656;7.276;2022-08-02T14:16:38;3.45;;;3.15;;
28335;SDS011;15592;53.656;7.276;2022-08-02T14:19:03;3.13;;;2.83;;
28335;SDS011;15592;53.656;7.276;2022-08-02T14:21:29;3.10;;;2.60;;
28335;SDS011;15592;53.656;7.276;2022-08-02T14:23:55;4.10;;;2.90;;
28335;SDS011;15592;53.656;7.276;2022-08-02T14:26:21;3.00;;;2.60;;
28335;SDS011;15592;53.656;7.276;2022-08-02T14:28:46;4.05;;;2.70;;
28335;SDS011;15592;53.656;7.276;2022-08-02T14:31:12;2.95;;;2.58;;
28335;SDS011;15592;53.656;7.276;2022-08-02T14:33:38;4.35;;;2.80;;
28335;SDS011;15592;53.656;7.276;2022-08-02T14:36:04;3.88;;;2.53;;
28335;SDS011;15592;53.656;7.276;2022-08-02T14:38:30;3.55;;;2.97;;
28335;SDS011;15592;53.656;7.276;2022-08-02T14:40:56;3.13;;;2.58;;
28335;SDS011;15592;53.656;7.276;2022-08-02T14:43:22;3.85;;;2.55;;
28335;SDS011;15592;53.656;7.276;2022-08-02T14:46:06;4.40;;;3.30;;
28335;SDS011;15592;53.656;7.276;2022-08-02T14:48:32;6.00;;;4.07;;
28335;SDS011;15592;53.656;7.276;2022-08-02T14:50:57;4.28;;;3.50;;
28335;SDS011;15592;53.656;7.276;2022-08-02T14:53:23;5.10;;;4.07;;
28335;SDS011;15592;53.656;7.276;2022-08-02T14:55:49;4.60;;;3.80;;
28335;SDS011;15592;53.656;7.276;2022-08-02T14:58:15;6.97;;;3.88;;
28335;SDS011;15592;53.656;7.276;2022-08-02T15:00:40;6.07;;;4.70;;
28335;SDS011;15592;53.656;7.276;2022-08-02T15:03:06;6.90;;;3.83;;
28335;SDS011;15592;53.656;7.276;2022-08-02T15:05:32;7.22;;;4.13;;
28335;SDS011;15592;53.656;7.276;2022-08-02T15:07:58;4.85;;;3.88;;
28335;SDS011;15592;53.656;7.276;2022-08-02T15:10:23;7.72;;;4.47;;
28335;SDS011;15592;53.656;7.276;2022-08-02T15:12:49;8.48;;;4.57;;
28335;SDS011;15592;53.656;7.276;2022-08-02T15:15:14;6.78;;;4.80;;
28335;SDS011;15592;53.656;7.276;2022-08-02T15:17:40;4.80;;;4.20;;
28335;SDS011;15592;53.656;7.276;2022-08-02T15:20:06;5.30;;;4.10;;
28335;SDS011;15592;53.656;7.276;2022-08-02T15:22:32;5.03;;;4.07;;
28335;SDS011;15592;53.656;7.276;2022-08-02T15:24:58;4.30;;;3.90;;
28335;SDS011;15592;53.656;7.276;2022-08-02T15:27:23;5.70;;;3.80;;
28335;SDS011;15592;53.656;7.276;2022-08-02T15:29:49;4.95;;;3.58;;
28335;SDS011;15592;53.656;7.276;2022-08-02T15:32:15;5.15;;;4.20;;
28335;SDS011;15592;53.656;7.276;2022-08-02T15:34:43;7.05;;;5.07;;
28335;SDS011;15592;53.656;7.276;2022-08-02T15:37:09;6.35;;;4.18;;
28335;SDS011;15592;53.656;7.276;2022-08-02T15:39:35;6.30;;;4.20;;
28335;SDS011;15592;53.656;7.276;2022-08-02T15:42:01;4.93;;;3.85;;
28335;SDS011;15592;53.656;7.276;2022-08-02T15:44:27;4.18;;;3.78;;